Time;durP1;ratioP1;P1;durP2;ratioP2;P2;SDS_P1;SDS_P2;PMS_P1;PMS_P2;Temp;Humidity;BMP_temperature;BMP_pressure;BME280_temperature;BME280_humidity;BME280_pressure;Samples;Min_cycle;Max_cycle;Signal;HPM_P1;HPM_P2
2022/08/01 00:00:01;;;;;;;0.82;0.40;;;;;;;29.73;40.09;99183.84;5049947;28;20041;-58
2022/08/01 00:02:27;;;;;;;0.60;0.32;;;;;;;29.74;40.26;99187.44;5050610;28;20072;-58
2022/08/01 00:04:55;;;;;;;0.30;0.30;;;;;;;29.72;40.04;99187.06;5050706;28;20049;-58
2022/08/01 00:07:21;;;;;;;0.30;0.30;;;;;;;29.73;40.33;99177.41;5050635;28;20044;-59
2022/08/01 00:09:46;;;;;;;0.20;0.20;;;;;;;29.73;40.08;99183.06;5050395;28;20049;-59
2022/08/01 00:12:12;;;;;;;0.60;0.38;;;;;;;29.74;40.37;99188.25;5050364;28;20389;-58
2022/08/01 00:14:37;;;;;;;3.78;0.45;;;;;;;29.74;40.22;99187.44;5050474;28;20048;-58
2022/08/01 00:17:03;;;;;;;0.30;0.30;;;;;;;29.73;40.29;99185.88;5050318;28;20056;-58
2022/08/01 00:19:28;;;;;;;0.60;0.40;;;;;;;29.74;40.00;99187.44;5050499;28;20056;-58
2022/08/01 00:21:54;;;;;;;0.40;0.30;;;;;;;29.74;40.07;99188.25;5032493;28;20402;-59
2022/08/01 00:24:19;;;;;;;0.73;0.40;;;;;;;29.73;40.00;99191.50;5048316;28;20041;-58
2022/08/01 00:26:44;;;;;;;0.80;0.40;;;;;;;29.72;40.28;99187.06;5050079;28;20084;-58
2022/08/01 00:29:10;;;;;;;0.70;0.30;;;;;;;29.72;40.54;99181.44;5048294;28;20075;-58
2022/08/01 00:31:35;;;;;;;0.30;0.30;;;;;;;29.73;40.41;99183.84;5050105;28;20521;-59
2022/08/01 00:34:01;;;;;;;0.50;0.30;;;;;;;29.71;40.10;99177.03;5049808;28;20055;-58
2022/08/01 00:36:26;;;;;;;0.52;0.30;;;;;;;29.73;40.14;99183.06;5050136;28;20039;-59
2022/08/01 00:38:51;;;;;;;0.30;0.30;;;;;;;29.73;40.19;99188.69;5049982;28;20044;-58
2022/08/01 00:41:17;;;;;;;0.45;0.30;;;;;;;29.72;40.11;99192.72;5049998;28;20114;-59
2022/08/01 00:43:43;;;;;;;0.75;0.40;;;;;;;29.72;40.27;99189.91;5049791;28;20052;-58
2022/08/01 00:46:08;;;;;;;0.40;0.32;;;;;;;29.73;40.42;99188.69;5049801;28;20048;-59
2022/08/01 00:48:34;;;;;;;0.30;0.30;;;;;;;29.73;40.46;99195.13;5049911;28;20517;-58
2022/08/01 00:50:59;;;;;;;0.75;0.30;;;;;;;29.74;40.03;99196.69;5049913;28;20041;-59
2022/08/01 00:53:25;;;;;;;0.70;0.40;;;;;;;29.72;40.02;99185.06;5049701;28;21026;-58
2022/08/01 00:55:50;;;;;;;0.47;0.30;;;;;;;29.73;40.06;99191.50;5049882;28;20056;-58
2022/08/01 00:58:17;;;;;;;0.45;0.30;;;;;;;29.69;40.40;99185.16;5049787;28;20056;-59
2022/08/01 01:00:42;;;;;;;0.38;0.30;;;;;;;29.73;40.45;99188.69;5047701;28;20041;-58
2022/08/01 01:03:08;;;;;;;0.25;0.25;;;;;;;29.71;40.13;99191.94;5049574;28;20418;-58
2022/08/01 01:05:45;;;;;;;0.68;0.38;;;;;;;29.70;40.35;99195.97;5049653;28;20037;-58
2022/08/01 01:08:26;;;;;;;0.38;0.28;;;;;;;29.72;40.10;99201.16;5048756;28;20052;-58
2022/08/01 01:10:57;;;;;;;0.40;0.40;;;;;;;29.73;40.40;99199.97;5047280;28;20497;-59
2022/08/01 01:13:25;;;;;;;0.40;0.40;;;;;;;29.72;40.43;99196.34;5049570;28;20048;-59
2022/08/01 01:16:06;;;;;;;0.30;0.30;;;;;;;29.73;40.47;99199.97;5049593;28;20582;-59
2022/08/01 01:18:47;;;;;;;0.35;0.20;;;;;;;29.73;40.10;99206.41;5047866;28;20040;-58
2022/08/01 01:21:16;;;;;;;0.30;0.20;;;;;;;29.72;40.13;99202.00;5049225;28;20405;-58
2022/08/01 01:23:59;;;;;;;0.90;0.40;;;;;;;29.72;40.22;99204.81;5049107;28;20041;-58
2022/08/01 01:26:50;;;;;;;0.40;0.40;;;;;;;29.74;40.18;99204.38;5048703;28;20052;-59
2022/08/01 01:29:28;;;;;;;0.30;0.30;;;;;;;29.73;40.39;99200.75;5049499;28;20053;-58
2022/08/01 01:32:08;;;;;;;0.57;0.30;;;;;;;29.75;40.05;99203.91;5049277;28;20041;-58
2022/08/01 01:34:38;;;;;;;0.20;0.20;;;;;;;29.74;40.40;99201.53;5049078;28;20053;-59
2022/08/01 01:37:07;;;;;;;0.70;0.43;;;;;;;29.76;40.25;99205.50;5049232;28;20049;-58
2022/08/01 01:39:35;;;;;;;0.30;0.30;;;;;;;29.77;40.17;99211.94;5049061;28;20049;-58
2022/08/01 01:42:01;;;;;;;0.65;0.40;;;;;;;29.77;40.36;99206.28;5049231;28;20044;-59
2022/08/01 01:44:27;;;;;;;0.32;0.30;;;;;;;29.74;40.02;99207.97;5049005;28;20045;-59
2022/08/01 01:46:56;;;;;;;0.30;0.30;;;;;;;29.76;39.94;99199.06;5049160;28;20497;-58
2022/08/01 01:49:24;;;;;;;0.38;0.20;;;;;;;29.78;40.19;99207.88;5046925;28;20049;-58
2022/08/01 01:51:53;;;;;;;0.20;0.20;;;;;;;29.78;40.08;99205.06;5047168;28;20060;-59
2022/08/01 01:54:20;;;;;;;0.57;0.30;;;;;;;29.79;39.96;99203.81;5048820;28;20071;-58
2022/08/01 01:56:48;;;;;;;0.55;0.30;;;;;;;29.80;39.88;99205.41;5048798;28;20072;-58
2022/08/01 01:59:35;;;;;;;0.55;0.30;;;;;;;29.80;40.18;99209.03;5048815;28;20060;-58
2022/08/01 02:02:03;;;;;;;0.35;0.30;;;;;;;29.81;40.22;99207.78;5047494;28;20106;-59
2022/08/01 02:04:30;;;;;;;0.70;0.40;;;;;;;29.81;39.98;99215.47;5048901;28;20045;-58
2022/08/01 02:06:57;;;;;;;0.55;0.32;;;;;;;29.81;39.96;99212.66;5048942;28;20509;-59
2022/08/01 02:09:25;;;;;;;0.35;0.35;;;;;;;29.80;40.03;99211.84;5049033;28;20187;-57
2022/08/01 02:11:53;;;;;;;0.30;0.30;;;;;;;29.82;40.26;99209.38;5047139;28;20037;-58
2022/08/01 02:14:21;;;;;;;0.63;0.38;;;;;;;29.81;39.74;99213.44;5048419;28;20452;-58
2022/08/01 02:16:50;;;;;;;0.52;0.30;;;;;;;29.81;39.80;99213.44;5048915;28;20531;-57
2022/08/01 02:19:19;;;;;;;0.70;0.40;;;;;;;29.81;40.11;99216.25;5048783;28;20056;-58
2022/08/01 02:22:03;;;;;;;0.47;0.30;;;;;;;29.83;40.16;99215.81;5049629;28;20090;-59
2022/08/01 02:24:41;;;;;;;0.40;0.25;;;;;;;29.80;39.80;99206.22;5052199;28;20103;-57
2022/08/01 02:27:12;;;;;;;0.25;0.25;;;;;;;29.81;40.02;99215.47;5051804;28;20424;-59
2022/08/01 02:29:49;;;;;;;0.60;0.32;;;;;;;29.80;40.18;99217.50;5052181;28;20073;-58
2022/08/01 02:32:26;;;;;;;0.40;0.40;;;;;;;29.83;40.16;99221.44;5052169;28;20419;-58
2022/08/01 02:34:55;;;;;;;0.40;0.30;;;;;;;29.83;40.11;99227.09;5051371;28;20152;-58
2022/08/01 02:37:23;;;;;;;0.68;0.38;;;;;;;29.82;40.17;99219.88;5051933;28;20059;-58
2022/08/01 02:39:53;;;;;;;0.60;0.40;;;;;;;29.83;40.04;99225.06;5051951;28;20045;-58
2022/08/01 02:42:20;;;;;;;0.60;0.38;;;;;;;29.84;39.60;99221.00;5051857;28;20064;-58
2022/08/01 02:44:48;;;;;;;0.70;0.40;;;;;;;29.83;40.13;99219.41;5051922;28;20450;-58
2022/08/01 02:47:18;;;;;;;0.77;0.40;;;;;;;29.84;40.10;99223.03;5051969;28;20044;-58
2022/08/01 02:49:46;;;;;;;0.40;0.40;;;;;;;29.84;39.77;99223.03;5050336;28;20049;-57
2022/08/01 02:52:15;;;;;;;0.55;0.30;;;;;;;29.84;39.89;99226.63;5051608;28;20519;-59
2022/08/01 02:54:47;;;;;;;0.28;0.28;;;;;;;29.84;39.94;99225.84;5051681;28;20095;-58
2022/08/01 02:57:15;;;;;;;0.40;0.30;;;;;;;29.85;39.94;99228.22;5051836;28;20512;-58
2022/08/01 02:59:42;;;;;;;0.40;0.38;;;;;;;29.83;39.79;99229.91;5051657;28;20508;-59
2022/08/01 03:02:10;;;;;;;0.38;0.25;;;;;;;29.84;40.12;99229.47;5051430;28;20128;-58
2022/08/01 03:04:38;;;;;;;0.55;0.40;;;;;;;29.84;39.72;99228.66;5051608;28;20122;-59
2022/08/01 03:07:07;;;;;;;1.00;0.40;;;;;;;29.85;39.72;99233.06;5051631;28;20084;-59
2022/08/01 03:09:37;;;;;;;0.60;0.40;;;;;;;29.85;39.64;99230.25;5049873;28;20075;-59
2022/08/01 03:12:06;;;;;;;0.70;0.50;;;;;;;29.85;40.01;99235.88;5051422;28;20064;-59
2022/08/01 03:14:36;;;;;;;0.30;0.30;;;;;;;29.84;39.98;99226.63;5051386;28;20048;-58
2022/08/01 03:17:05;;;;;;;0.47;0.40;;;;;;;29.85;39.96;99235.88;5051341;28;20124;-59
2022/08/01 03:19:32;;;;;;;0.65;0.40;;;;;;;29.81;39.72;99221.09;5051199;28;20037;-59
2022/08/01 03:21:59;;;;;;;0.52;0.38;;;;;;;29.85;39.66;99227.44;5051003;28;20052;-58
2022/08/01 03:24:26;;;;;;;0.70;0.43;;;;;;;29.86;39.56;99223.38;5051090;28;20045;-58
2022/08/01 03:26:53;;;;;;;0.43;0.30;;;;;;;29.85;39.95;99224.59;5051124;28;20052;-58
2022/08/01 03:29:22;;;;;;;0.50;0.38;;;;;;;29.85;39.95;99227.44;5051189;28;20048;-58
2022/08/01 03:31:49;;;;;;;0.65;0.40;;;;;;;29.84;39.55;99218.19;5051259;28;20115;-59
2022/08/01 03:34:15;;;;;;;0.45;0.40;;;;;;;29.83;39.68;99215.81;5047955;28;20047;-58
2022/08/01 03:36:53;;;;;;;0.15;0.15;;;;;;;29.83;39.74;99219.41;5050905;28;20425;-59
2022/08/01 03:39:22;;;;;;;0.63;0.38;;;;;;;29.85;39.91;99225.41;5049111;28;20033;-59
2022/08/01 03:42:13;;;;;;;0.30;0.30;;;;;;;29.81;39.60;99218.28;5051367;28;20052;-59
2022/08/01 03:44:41;;;;;;;0.47;0.40;;;;;;;29.85;39.50;99224.59;5039750;28;20051;-59
2022/08/01 03:47:09;;;;;;;0.30;0.30;;;;;;;29.85;39.50;99227.44;5050841;28;20338;-58
2022/08/01 03:49:44;;;;;;;0.60;0.40;;;;;;;29.84;39.51;99231.50;5048866;28;20047;-58
2022/08/01 03:52:11;;;;;;;0.35;0.35;;;;;;;29.83;39.62;99232.72;5050946;28;20049;-58
2022/08/01 03:54:41;;;;;;;0.40;0.30;;;;;;;29.85;39.77;99235.88;5050742;28;20053;-59
2022/08/01 03:57:10;;;;;;;0.20;0.20;;;;;;;29.85;39.59;99230.25;5050853;28;20536;-58
2022/08/01 03:59:36;;;;;;;0.50;0.40;;;;;;;29.84;39.79;99237.13;5050792;28;20048;-58
2022/08/01 04:02:02;;;;;;;0.70;0.47;;;;;;;29.83;39.97;99233.50;5050689;28;20429;-58
2022/08/01 04:04:28;;;;;;;0.40;0.35;;;;;;;29.84;39.43;99231.50;5050617;28;20047;-58
2022/08/01 04:06:54;;;;;;;0.38;0.20;;;;;;;29.85;39.56;99238.72;5050618;28;20432;-57
2022/08/01 04:09:21;;;;;;;0.30;0.30;;;;;;;29.83;39.75;99235.53;5050566;28;20044;-59
2022/08/01 04:11:47;;;;;;;0.28;0.28;;;;;;;29.86;39.77;99237.47;5050496;28;20092;-59
2022/08/01 04:14:13;;;;;;;1.02;0.30;;;;;;;29.85;39.95;99239.50;5050197;28;20049;-58
2022/08/01 04:16:39;;;;;;;0.82;0.30;;;;;;;29.85;39.84;99247.16;5050521;28;20107;-59
2022/08/01 04:19:07;;;;;;;0.30;0.30;;;;;;;29.83;39.78;99244.00;5050425;28;20047;-59
2022/08/01 04:21:34;;;;;;;0.88;0.30;;;;;;;29.82;39.61;99243.22;5050165;28;20048;-58
2022/08/01 04:24:04;;;;;;;0.30;0.30;;;;;;;29.85;40.04;99247.16;5050103;28;20049;-58
2022/08/01 04:26:32;;;;;;;0.38;0.30;;;;;;;29.85;39.65;99249.97;5050197;28;20045;-58
2022/08/01 04:29:02;;;;;;;0.30;0.30;;;;;;;29.85;39.63;99253.59;5050299;28;20045;-58
2022/08/01 04:31:29;;;;;;;0.50;0.30;;;;;;;29.82;39.56;99248.84;5048642;28;20074;-58
2022/08/01 04:33:57;;;;;;;0.38;0.30;;;;;;;29.84;39.49;99256.88;5050221;28;20073;-58
2022/08/01 04:36:24;;;;;;;0.43;0.32;;;;;;;29.85;39.44;99252.81;5049975;28;20051;-59
2022/08/01 04:38:55;;;;;;;0.20;0.20;;;;;;;29.84;39.59;99268.13;5050267;28;20068;-58
2022/08/01 04:41:22;;;;;;;1.15;0.50;;;;;;;29.85;39.64;99264.88;5049993;28;20409;-58
2022/08/01 04:43:48;;;;;;;0.28;0.28;;;;;;;29.84;39.89;99265.31;5049844;28;20076;-58
2022/08/01 04:46:14;;;;;;;0.40;0.32;;;;;;;29.84;39.75;99262.50;5049709;28;20045;-59
2022/08/01 04:48:41;;;;;;;0.43;0.40;;;;;;;29.85;39.56;99269.72;5049805;28;20459;-59
2022/08/01 04:51:15;;;;;;;0.25;0.25;;;;;;;29.84;39.55;99265.31;5049765;28;20048;-59
2022/08/01 04:53:40;;;;;;;0.88;0.30;;;;;;;29.84;40.02;99265.31;5049931;28;20074;-59
2022/08/01 04:56:06;;;;;;;0.30;0.30;;;;;;;29.84;39.63;99274.56;5049506;28;20094;-59
2022/08/01 04:58:31;;;;;;;0.52;0.40;;;;;;;29.85;40.02;99275.38;5049805;28;20037;-59
2022/08/01 05:00:57;;;;;;;1.00;0.50;;;;;;;29.85;39.58;99281.00;5049856;28;20098;-59
2022/08/01 05:03:23;;;;;;;0.40;0.30;;;;;;;29.85;39.56;99278.19;5049567;28;20048;-59
2022/08/01 05:05:48;;;;;;;0.93;0.30;;;;;;;29.83;39.48;99280.66;5049671;28;20045;-59
2022/08/01 05:08:13;;;;;;;0.30;0.30;;;;;;;29.84;39.62;99273.78;5049615;28;20460;-59
2022/08/01 05:10:39;;;;;;;0.20;0.20;;;;;;;29.82;39.95;99268.59;5049306;28;20049;-58
2022/08/01 05:13:06;;;;;;;0.40;0.30;;;;;;;29.84;39.56;99273.78;5049457;28;20120;-58
2022/08/01 05:15:31;;;;;;;0.30;0.30;;;;;;;29.83;40.04;99269.38;5049398;28;20048;-58
2022/08/01 05:17:57;;;;;;;0.40;0.30;;;;;;;29.83;39.94;99267.34;5049432;28;20394;-59
2022/08/01 05:20:22;;;;;;;0.30;0.30;;;;;;;29.84;40.02;99274.56;5031436;28;20037;-57
2022/08/01 05:22:48;;;;;;;0.82;0.50;;;;;;;29.84;39.88;99268.94;5049473;28;20124;-58
2022/08/01 05:25:13;;;;;;;0.43;0.30;;;;;;;29.85;39.64;99267.69;5049226;28;20048;-57
2022/08/01 05:27:41;;;;;;;0.95;0.40;;;;;;;29.82;39.56;99262.16;5049198;28;20049;-58
2022/08/01 05:30:08;;;;;;;0.30;0.30;;;;;;;29.84;39.87;99268.13;5049109;28;20051;-58
2022/08/01 05:32:33;;;;;;;0.30;0.30;;;;;;;29.84;39.85;99268.13;5049320;28;20049;-57
2022/08/01 05:34:59;;;;;;;0.45;0.40;;;;;;;29.83;39.48;99269.38;5049208;28;20500;-58
2022/08/01 05:37:24;;;;;;;0.43;0.35;;;;;;;29.85;39.58;99270.50;5049101;28;20148;-59
2022/08/01 05:39:50;;;;;;;0.20;0.20;;;;;;;29.85;39.78;99272.53;5049060;28;20044;-59
2022/08/01 05:42:15;;;;;;;0.45;0.30;;;;;;;29.84;39.60;99274.56;5049115;28;20037;-59
2022/08/01 05:44:41;;;;;;;0.40;0.32;;;;;;;29.81;39.91;99264.19;5049136;28;20515;-58
2022/08/01 05:47:06;;;;;;;0.30;0.30;;;;;;;29.85;39.49;99273.34;5048988;28;20564;-58
2022/08/01 05:49:31;;;;;;;0.30;0.30;;;;;;;29.81;39.87;99267.00;5049091;28;20469;-57
2022/08/01 05:51:57;;;;;;;0.55;0.50;;;;;;;29.84;39.95;99279.41;5048770;28;20051;-58
2022/08/01 05:54:22;;;;;;;0.22;0.22;;;;;;;29.84;39.78;99276.59;5048805;28;20095;-58
2022/08/01 05:56:48;;;;;;;0.50;0.35;;;;;;;29.82;39.90;99271.41;5050200;28;20095;-58
2022/08/01 05:59:13;;;;;;;0.30;0.30;;;;;;;29.83;39.95;99272.19;5052510;28;20045;-58
2022/08/01 06:01:39;;;;;;;0.30;0.30;;;;;;;29.83;39.85;99278.63;5052713;28;20515;-59
2022/08/01 06:04:04;;;;;;;0.30;0.30;;;;;;;29.70;39.58;99277.75;5052564;28;20132;-58
2022/08/01 06:06:29;;;;;;;0.30;0.30;;;;;;;29.53;39.37;99276.94;5052517;28;20059;-59
2022/08/01 06:08:55;;;;;;;0.38;0.30;;;;;;;29.37;40.78;99281.72;5052577;28;20140;-58
2022/08/01 06:11:20;;;;;;;0.50;0.43;;;;;;;29.16;41.42;99280.97;5052429;28;20048;-58
2022/08/01 06:13:46;;;;;;;0.30;0.30;;;;;;;29.00;41.54;99284.50;5052168;28;20144;-59
2022/08/01 06:16:11;;;;;;;0.28;0.28;;;;;;;28.95;41.64;99282.22;5052119;28;20505;-58
2022/08/01 06:18:36;;;;;;;0.30;0.30;;;;;;;28.90;41.33;99276.25;5052142;28;20052;-58
2022/08/01 06:21:02;;;;;;;0.30;0.30;;;;;;;28.93;40.25;99283.84;5052194;28;20575;-58
2022/08/01 06:23:27;;;;;;;0.30;0.30;;;;;;;28.89;41.29;99278.28;5052283;28;20056;-59
2022/08/01 06:25:57;;;;;;;0.32;0.32;;;;;;;28.86;41.63;99278.34;5050039;28;20041;-58
2022/08/01 06:28:23;;;;;;;0.60;0.40;;;;;;;28.75;42.02;99278.56;5052342;28;20080;-59
2022/08/01 06:30:48;;;;;;;0.32;0.30;;;;;;;28.70;41.95;99284.69;5051977;28;20088;-58
2022/08/01 06:33:14;;;;;;;0.32;0.32;;;;;;;28.69;42.05;99274.66;5051970;28;20071;-57
2022/08/01 06:35:39;;;;;;;0.43;0.40;;;;;;;28.74;41.78;99288.25;5051807;28;20500;-57
2022/08/01 06:38:05;;;;;;;0.50;0.30;;;;;;;28.72;41.47;99279.41;5051874;28;20045;-59
2022/08/01 06:40:30;;;;;;;0.40;0.40;;;;;;;28.69;42.12;99278.28;5051918;28;20045;-58
2022/08/01 06:42:56;;;;;;;0.30;0.30;;;;;;;28.55;42.43;99275.75;5052026;28;20036;-58
2022/08/01 06:45:22;;;;;;;0.50;0.40;;;;;;;28.52;42.42;99271.78;5051782;28;20052;-58
2022/08/01 06:47:48;;;;;;;0.57;0.40;;;;;;;28.61;42.21;99276.81;5051862;28;20049;-58
2022/08/01 06:50:14;;;;;;;0.30;0.30;;;;;;;28.67;41.89;99277.91;5051742;28;20394;-58
2022/08/01 06:52:41;;;;;;;1.35;0.40;;;;;;;28.65;40.75;99280.38;5051810;28;20045;-58
2022/08/01 06:55:07;;;;;;;0.38;0.38;;;;;;;28.66;41.71;99273.53;5051386;28;20072;-58
2022/08/01 06:57:33;;;;;;;0.45;0.40;;;;;;;28.55;42.13;99284.19;5051663;28;20045;-58
2022/08/01 07:00:03;;;;;;;0.50;0.40;;;;;;;28.48;42.48;99282.28;5051699;28;20107;-58
2022/08/01 07:02:28;;;;;;;0.52;0.40;;;;;;;28.51;42.24;99281.44;5050252;28;20045;-58
2022/08/01 07:04:53;;;;;;;0.47;0.43;;;;;;;28.57;41.94;99278.13;5051545;28;20124;-58
2022/08/01 07:07:19;;;;;;;0.40;0.40;;;;;;;28.56;41.98;99268.88;5051081;28;20417;-58
2022/08/01 07:09:44;;;;;;;0.47;0.40;;;;;;;28.62;41.79;99274.81;5050476;28;20048;-59
2022/08/01 07:12:10;;;;;;;0.45;0.40;;;;;;;28.64;41.92;99278.78;5051329;28;20104;-58
2022/08/01 07:14:36;;;;;;;0.45;0.30;;;;;;;28.67;41.83;99280.72;5051229;28;20110;-58
2022/08/01 07:17:01;;;;;;;0.30;0.30;;;;;;;28.72;41.66;99285.06;5051329;28;20458;-58
2022/08/01 07:19:27;;;;;;;0.88;0.50;;;;;;;28.70;41.15;99268.59;5051401;28;20056;-58
2022/08/01 07:21:53;;;;;;;0.55;0.40;;;;;;;28.70;41.66;99276.25;5051105;28;20052;-58
2022/08/01 07:24:18;;;;;;;0.63;0.40;;;;;;;28.61;42.15;99273.22;5051222;28;20069;-57
2022/08/01 07:26:46;;;;;;;0.40;0.40;;;;;;;28.50;42.33;99279.03;5051168;28;20106;-58
2022/08/01 07:29:11;;;;;;;0.30;0.30;;;;;;;28.47;42.17;99280.72;5051198;28;20076;-57
2022/08/01 07:31:37;;;;;;;0.35;0.30;;;;;;;28.50;42.06;99279.88;5051213;28;20131;-58
2022/08/01 07:34:02;;;;;;;0.25;0.20;;;;;;;28.57;42.11;99272.50;5051125;28;20064;-59
2022/08/01 07:36:28;;;;;;;0.57;0.32;;;;;;;28.61;42.04;99273.22;5051166;28;20131;-58
2022/08/01 07:38:53;;;;;;;0.52;0.30;;;;;;;28.66;41.00;99275.53;5050941;28;20107;-58
2022/08/01 07:41:19;;;;;;;0.35;0.35;;;;;;;28.62;41.17;99266.38;5051145;28;20044;-58
2022/08/01 07:43:44;;;;;;;0.45;0.30;;;;;;;28.56;42.14;99266.06;5051045;28;20056;-59
2022/08/01 07:46:09;;;;;;;0.43;0.30;;;;;;;28.49;42.04;99267.00;5050929;28;20466;-58
2022/08/01 07:48:35;;;;;;;0.52;0.47;;;;;;;28.47;42.31;99274.28;5050771;28;20132;-58
2022/08/01 07:51:00;;;;;;;0.35;0.30;;;;;;;28.54;41.99;99259.28;5050681;28;20493;-58
2022/08/01 07:53:26;;;;;;;0.40;0.40;;;;;;;28.57;41.79;99261.22;5050644;28;20045;-58
2022/08/01 07:55:52;;;;;;;0.40;0.30;;;;;;;28.61;41.94;99261.97;5050602;28;20551;-57
2022/08/01 07:58:18;;;;;;;1.17;0.50;;;;;;;28.65;41.89;99259.88;5050610;28;20057;-58
2022/08/01 08:00:43;;;;;;;0.40;0.30;;;;;;;28.69;41.00;99263.41;5050514;28;20086;-58
2022/08/01 08:03:09;;;;;;;0.30;0.30;;;;;;;28.65;40.97;99259.88;5050483;28;20105;-59
2022/08/01 08:05:35;;;;;;;0.50;0.38;;;;;;;28.57;41.60;99247.16;5050573;28;20033;-59
2022/08/01 08:08:08;;;;;;;1.23;0.40;;;;;;;28.52;41.90;99245.66;5050479;28;20052;-58
2022/08/01 08:10:34;;;;;;;0.40;0.30;;;;;;;28.49;41.85;99240.88;5050780;28;20040;-58
2022/08/01 08:13:03;;;;;;;0.55;0.40;;;;;;;28.51;41.84;99255.34;5050339;28;21334;-59
2022/08/01 08:15:29;;;;;;;0.68;0.50;;;;;;;28.53;41.87;99238.81;5050429;28;20512;-59
2022/08/01 08:17:55;;;;;;;0.47;0.20;;;;;;;28.60;41.45;99249.13;5050516;28;20076;-59
2022/08/01 08:20:26;;;;;;;0.60;0.30;;;;;;;28.66;41.46;99253.03;5049814;28;20139;-59
2022/08/01 08:22:52;;;;;;;0.30;0.30;;;;;;;28.64;41.41;99244.19;5031266;28;20412;-58
2022/08/01 08:25:19;;;;;;;0.85;0.35;;;;;;;28.63;41.51;99243.41;5048158;28;20854;-58
2022/08/01 08:27:45;;;;;;;0.80;0.40;;;;;;;28.66;41.36;99245.38;5047999;28;20108;-58
2022/08/01 08:30:11;;;;;;;0.40;0.30;;;;;;;28.67;41.51;99244.16;5050151;28;20111;-58
2022/08/01 08:32:37;;;;;;;0.50;0.40;;;;;;;28.70;40.93;99237.63;5049916;28;20523;-59
2022/08/01 08:35:04;;;;;;;0.60;0.38;;;;;;;28.71;41.18;99241.25;5049836;28;20049;-58
2022/08/01 08:37:29;;;;;;;0.50;0.40;;;;;;;28.71;41.24;99241.25;5050065;28;20099;-58
2022/08/01 08:39:55;;;;;;;0.50;0.38;;;;;;;28.76;41.08;99235.13;5050131;28;20497;-57
2022/08/01 08:42:20;;;;;;;0.65;0.40;;;;;;;28.78;40.98;99233.44;5049856;28;20037;-58
2022/08/01 08:44:46;;;;;;;0.47;0.25;;;;;;;28.80;40.64;99238.66;5047898;28;20052;-58
2022/08/01 08:47:13;;;;;;;0.38;0.25;;;;;;;28.81;41.13;99228.19;5049937;28;20139;-58
2022/08/01 08:49:38;;;;;;;0.50;0.28;;;;;;;28.77;40.88;99231.88;5049793;28;20049;-58
2022/08/01 08:52:04;;;;;;;0.40;0.30;;;;;;;28.74;40.62;99231.94;5050011;28;20056;-58
2022/08/01 08:54:32;;;;;;;0.32;0.32;;;;;;;28.75;40.92;99231.50;5049703;28;20045;-58
2022/08/01 08:56:59;;;;;;;0.20;0.20;;;;;;;28.74;40.89;99223.50;5049837;28;20052;-58
2022/08/01 08:59:25;;;;;;;0.40;0.35;;;;;;;28.74;40.84;99215.06;5049737;28;20053;-59
2022/08/01 09:01:50;;;;;;;0.60;0.32;;;;;;;28.78;40.59;99224.22;5031834;28;20068;-57
2022/08/01 09:04:16;;;;;;;0.50;0.30;;;;;;;28.77;40.58;99214.97;5049533;28;20539;-58
2022/08/01 09:06:41;;;;;;;0.30;0.30;;;;;;;28.83;40.63;99214.47;5049809;28;20037;-59
2022/08/01 09:09:08;;;;;;;0.63;0.30;;;;;;;28.79;40.49;99203.28;5049671;28;20090;-58
2022/08/01 09:11:34;;;;;;;0.22;0.20;;;;;;;28.81;40.38;99214.91;5047711;28;20045;-59
2022/08/01 09:14:09;;;;;;;0.40;0.30;;;;;;;28.81;40.33;99208.50;5049454;28;20044;-59
2022/08/01 09:16:36;;;;;;;0.50;0.40;;;;;;;28.80;40.36;99202.06;5049269;28;20579;-59
2022/08/01 09:19:13;;;;;;;0.32;0.30;;;;;;;28.82;40.54;99213.69;5049377;28;20063;-58
2022/08/01 09:21:53;;;;;;;0.43;0.30;;;;;;;28.84;40.41;99208.41;5049339;28;20040;-57
2022/08/01 09:24:19;;;;;;;0.50;0.30;;;;;;;28.83;40.65;99206.03;5049487;28;20069;-58
2022/08/01 09:26:44;;;;;;;0.40;0.30;;;;;;;28.82;40.63;99208.03;5049430;28;20043;-58
2022/08/01 09:29:20;;;;;;;0.55;0.40;;;;;;;28.82;40.80;99210.06;5049318;28;20041;-58
2022/08/01 09:31:46;;;;;;;0.77;0.47;;;;;;;28.79;41.04;99206.09;5046633;28;20045;-58
2022/08/01 09:34:12;;;;;;;0.30;0.30;;;;;;;28.79;40.90;99206.09;5049233;28;20528;-59
2022/08/01 09:36:54;;;;;;;0.57;0.30;;;;;;;28.81;40.95;99208.50;5047116;28;20052;-58
2022/08/01 09:39:20;;;;;;;0.57;0.30;;;;;;;28.81;40.22;99198.03;5049101;28;20131;-59
2022/08/01 09:41:47;;;;;;;0.40;0.30;;;;;;;28.76;40.48;99190.88;5049218;28;20127;-58
2022/08/01 09:44:13;;;;;;;0.40;0.30;;;;;;;28.71;40.95;99187.75;5049264;28;20503;-57
2022/08/01 09:46:55;;;;;;;0.60;0.30;;;;;;;28.62;41.11;99190.38;5049275;28;20063;-59
2022/08/01 09:49:30;;;;;;;0.25;0.25;;;;;;;28.66;40.92;99188.28;5049158;28;20083;-58
2022/08/01 09:51:56;;;;;;;0.50;0.30;;;;;;;28.68;40.92;99188.66;5049072;28;20675;-57
2022/08/01 09:54:33;;;;;;;0.40;0.30;;;;;;;28.70;40.68;99186.19;5048957;28;20115;-59
2022/08/01 09:57:10;;;;;;;0.47;0.40;;;;;;;28.74;40.77;99184.09;5049016;28;20067;-58
2022/08/01 09:59:37;;;;;;;0.47;0.40;;;;;;;28.75;40.50;99177.25;5048744;28;20057;-58
2022/08/01 10:02:03;;;;;;;0.20;0.20;;;;;;;28.74;40.54;99173.63;5047061;28;20045;-58
2022/08/01 10:04:28;;;;;;;1.02;0.40;;;;;;;28.76;40.50;99173.97;5048813;28;20409;-59
2022/08/01 10:07:04;;;;;;;0.40;0.28;;;;;;;28.78;40.37;99165.88;5048901;28;20124;-58
2022/08/01 10:09:33;;;;;;;0.70;0.40;;;;;;;28.81;40.42;99167.06;5047403;28;20045;-58
2022/08/01 10:12:00;;;;;;;0.20;0.20;;;;;;;28.80;40.49;99162.66;5048980;28;20072;-58
2022/08/01 10:14:26;;;;;;;0.27;0.23;;;;;;;28.83;40.42;99156.13;5048601;28;20390;-59
2022/08/01 10:16:57;;;;;;;0.30;0.20;;;;;;;28.82;40.23;99154.56;5048684;28;20432;-59
2022/08/01 10:19:25;;;;;;;0.30;0.30;;;;;;;28.87;40.25;99151.25;5048764;28;20087;-59
2022/08/01 10:21:53;;;;;;;0.35;0.28;;;;;;;28.88;40.35;99147.19;5048545;28;20041;-58
2022/08/01 10:24:23;;;;;;;0.63;0.30;;;;;;;28.86;40.09;99140.38;5048876;28;20090;-58
2022/08/01 10:26:58;;;;;;;0.40;0.22;;;;;;;28.87;40.00;99142.00;5048502;28;20133;-59
2022/08/01 10:29:26;;;;;;;0.20;0.20;;;;;;;28.88;39.97;99135.13;5047138;28;20057;-59
2022/08/01 10:31:51;;;;;;;0.30;0.30;;;;;;;28.90;40.11;99133.47;5048616;28;20455;-58
2022/08/01 10:34:19;;;;;;;0.30;0.30;;;;;;;28.88;40.07;99135.94;5048668;28;20102;-59
2022/08/01 10:36:46;;;;;;;0.50;0.30;;;;;;;28.91;40.01;99123.81;5048489;28;20090;-59
2022/08/01 10:39:12;;;;;;;0.43;0.30;;;;;;;28.93;40.17;99123.38;5048346;28;20049;-58
2022/08/01 10:41:39;;;;;;;0.30;0.20;;;;;;;28.92;40.11;99113.34;5048429;28;20468;-58
2022/08/01 10:44:07;;;;;;;0.38;0.30;;;;;;;28.88;39.98;99102.13;5051330;28;20501;-58
2022/08/01 10:46:37;;;;;;;0.60;0.40;;;;;;;28.91;39.54;99095.66;5050171;28;20611;-58
2022/08/01 10:49:06;;;;;;;0.20;0.20;;;;;;;28.86;39.34;99098.16;5051874;28;20053;-59
2022/08/01 10:51:37;;;;;;;0.40;0.40;;;;;;;28.83;39.96;99094.22;5051666;28;20049;-58
2022/08/01 10:54:06;;;;;;;0.20;0.20;;;;;;;28.75;40.25;99087.94;5051571;28;20094;-59
2022/08/01 10:56:40;;;;;;;0.40;0.30;;;;;;;28.73;40.19;99089.63;5051433;28;20404;-58
2022/08/01 10:59:05;;;;;;;0.40;0.32;;;;;;;28.76;40.10;99077.47;5051533;28;20037;-57
2022/08/01 11:01:34;;;;;;;0.15;0.15;;;;;;;28.79;39.98;99079.41;5051581;28;20041;-59
2022/08/01 11:04:05;;;;;;;0.47;0.30;;;;;;;28.79;40.01;99074.59;5051503;28;20060;-58
2022/08/01 11:06:34;;;;;;;0.30;0.30;;;;;;;28.82;40.12;99069.31;5051590;28;20041;-59
2022/08/01 11:09:25;;;;;;;0.30;0.30;;;;;;;28.85;39.88;99062.78;5051418;28;20156;-58
2022/08/01 11:11:56;;;;;;;0.25;0.20;;;;;;;28.87;39.90;99055.50;5050497;28;20053;-59
2022/08/01 11:14:21;;;;;;;0.40;0.30;;;;;;;28.88;39.90;99062.72;5051583;28;20052;-59
2022/08/01 11:16:47;;;;;;;0.10;0.10;;;;;;;28.86;39.19;99059.53;5051245;28;20509;-58
2022/08/01 11:19:13;;;;;;;0.20;0.20;;;;;;;28.78;39.44;99047.66;5051369;28;20048;-59
2022/08/01 11:21:54;;;;;;;0.60;0.40;;;;;;;28.72;40.17;99037.34;5051161;28;20044;-57
2022/08/01 11:24:51;;;;;;;0.28;0.20;;;;;;;28.70;40.18;99045.44;5049236;28;20073;-58
2022/08/01 11:27:24;;;;;;;0.30;0.28;;;;;;;28.72;40.20;99042.97;5043043;28;20044;-58
2022/08/01 11:30:08;;;;;;;0.35;0.30;;;;;;;28.74;40.23;99034.91;5051264;28;20491;-59
2022/08/01 11:32:33;;;;;;;0.88;0.28;;;;;;;28.80;39.97;99033.16;5051203;28;20516;-58
2022/08/01 11:34:59;;;;;;;0.20;0.20;;;;;;;28.74;39.20;99023.66;5051107;28;20044;-58
2022/08/01 11:37:29;;;;;;;0.52;0.30;;;;;;;28.68;39.81;99009.31;5050952;28;20589;-59